Time;durP1;ratioP1;P1;durP2;ratioP2;P2;SDS_P1;SDS_P2;PMS_P1;PMS_P2;Temp;Humidity;BMP_temperature;BMP_pressure;BME280_temperature;BME280_humidity;BME280_pressure;Samples;Min_cycle;Max_cycle;Signal;HPM_P1;HPM_P2
2022/06/02 00:03:56;;;;;;;1.60;0.88;;;19.00;50.70;;;;;;10054750;28;20370;-58
2022/06/02 00:09:18;;;;;;;0.68;0.60;;;19.10;50.90;;;;;;10053175;28;20151;-57
2022/06/02 00:14:20;;;;;;;1.90;0.93;;;19.00;51.50;;;;;;10038289;28;20488;-58
2022/06/02 00:19:45;;;;;;;0.68;0.65;;;18.80;52.70;;;;;;10057637;28;20075;-60
2022/06/02 00:24:51;;;;;;;1.33;0.85;;;18.80;51.60;;;;;;10043558;28;20036;-58
2022/06/02 00:30:14;;;;;;;2.20;1.20;;;18.80;51.30;;;;;;10056930;28;20063;-58
2022/06/02 00:35:22;;;;;;;1.55;1.10;;;18.70;52.10;;;;;;10053448;28;20091;-58
2022/06/02 00:40:17;;;;;;;3.10;1.08;;;18.60;52.60;;;;;;10057063;28;20097;-57
2022/06/02 00:45:15;;;;;;;2.03;1.08;;;18.60;52.30;;;;;;10056358;28;20071;-56
2022/06/02 00:50:05;;;;;;;1.48;0.77;;;18.40;52.80;;;;;;10054751;28;20438;-55
2022/06/02 01:00:38;;;;;;;1.55;1.10;;;18.40;53.60;;;;;;10055878;28;20086;-59
2022/06/02 01:06:02;;;;;;;2.08;1.00;;;18.40;53.20;;;;;;10050248;28;20028;-61
2022/06/02 01:10:55;;;;;;;3.35;0.98;;;18.20;54.50;;;;;;10050110;28;20029;-58
2022/06/02 01:16:21;;;;;;;2.13;0.95;;;18.10;54.30;;;;;;10056026;28;20494;-57
2022/06/02 01:21:32;;;;;;;2.47;1.33;;;17.90;55.00;;;;;;10047306;28;20867;-58
2022/06/02 01:26:50;;;;;;;3.45;0.80;;;17.90;54.30;;;;;;10046581;28;20034;-57
2022/06/02 01:31:48;;;;;;;1.42;1.00;;;17.90;54.80;;;;;;10050215;28;20083;-59
2022/06/02 01:36:42;;;;;;;2.10;1.17;;;17.80;54.70;;;;;;10053997;28;20029;-58
2022/06/02 01:42:14;;;;;;;2.10;1.20;;;17.80;54.70;;;;;;10036347;28;20032;-58
2022/06/02 01:47:23;;;;;;;1.90;1.65;;;17.70;56.60;;;;;;10054665;28;20029;-58
2022/06/02 01:52:39;;;;;;;1.52;1.17;;;17.50;55.40;;;;;;10054285;28;20076;-57
2022/06/02 01:57:32;;;;;;;;;;;17.50;55.60;;;;;;10053319;28;20502;-58
2022/06/02 02:02:44;;;;;;;2.08;1.10;;;17.40;56.30;;;;;;10054400;28;19913;-59
2022/06/02 02:08:10;;;;;;;1.77;1.52;;;17.40;56.50;;;;;;10035998;28;20420;-57
2022/06/02 02:13:38;;;;;;;1.60;1.13;;;17.40;56.60;;;;;;10040486;28;20037;-58
2022/06/02 02:18:52;;;;;;;3.08;1.38;;;17.50;56.50;;;;;;10054013;28;20583;-59
2022/06/02 02:24:12;;;;;;;1.25;1.15;;;17.40;55.90;;;;;;10053233;28;20034;-60
2022/06/02 02:29:04;;;;;;;2.58;1.30;;;17.60;55.90;;;;;;10043525;28;20037;-57
2022/06/02 02:34:00;;;;;;;1.27;1.10;;;17.50;55.70;;;;;;10053205;28;20029;-57
2022/06/02 02:39:12;;;;;;;1.55;1.42;;;17.40;56.10;;;;;;10053038;28;20079;-58
2022/06/02 02:44:38;;;;;;;1.52;1.17;;;17.20;56.70;;;;;;10051950;28;20499;-59
2022/06/02 02:49:40;;;;;;;1.88;1.10;;;17.20;57.30;;;;;;10023533;28;20088;-58
2022/06/02 02:55:07;;;;;;;4.50;1.23;;;17.20;57.00;;;;;;10042995;28;20022;-60
2022/06/02 03:00:13;;;;;;;1.35;1.20;;;17.10;57.20;;;;;;10023052;28;20542;-58
2022/06/02 03:05:16;;;;;;;2.97;1.42;;;17.10;57.70;;;;;;10051085;28;20070;-58
2022/06/02 03:10:20;;;;;;;1.52;1.02;;;17.10;57.80;;;;;;10048487;28;20032;-58
2022/06/02 03:15:15;;;;;;;3.92;1.98;;;17.00;58.70;;;;;;10060413;28;20148;-57
2022/06/02 03:20:08;;;;;;;3.28;1.40;;;17.00;57.60;;;;;;10043443;28;20052;-60
2022/06/02 03:25:19;;;;;;;1.10;1.00;;;17.00;58.00;;;;;;10059140;28;20606;-57
2022/06/02 03:30:18;;;;;;;2.22;1.40;;;17.00;58.20;;;;;;10055903;28;20033;-54
2022/06/02 03:35:44;;;;;;;2.08;1.10;;;16.90;58.20;;;;;;10059459;28;20037;-58
2022/06/02 03:41:35;;;;;;;1.70;1.30;;;16.90;58.60;;;;;;10056665;28;20053;-58
2022/06/02 03:46:31;;;;;;;2.28;1.25;;;16.80;60.60;;;;;;9983526;28;20060;-58
2022/06/02 03:51:28;;;;;;;2.53;1.33;;;16.90;58.50;;;;;;10058487;28;20201;-57
2022/06/02 03:56:49;;;;;;;2.08;1.20;;;16.80;59.30;;;;;;10058037;28;20044;-56
2022/06/02 04:01:49;;;;;;;1.50;1.27;;;16.70;59.90;;;;;;10054343;28;20045;-58
2022/06/02 04:07:11;;;;;;;2.97;1.40;;;16.70;59.50;;;;;;10058372;28;20116;-55
2022/06/02 04:17:26;;;;;;;3.05;1.75;;;16.70;59.60;;;;;;10055244;28;20060;-54
2022/06/02 04:22:44;;;;;;;1.83;1.73;;;16.50;60.30;;;;;;10057720;28;20053;-56
2022/06/02 04:27:44;;;;;;;2.05;1.10;;;16.50;61.50;;;;;;10051897;28;20079;-58
2022/06/02 04:32:56;;;;;;;2.42;1.60;;;16.50;60.60;;;;;;10057009;28;20116;-58
2022/06/02 04:38:07;;;;;;;1.50;1.20;;;16.50;61.00;;;;;;10055505;28;20064;-58
2022/06/02 04:43:16;;;;;;;1.63;1.27;;;16.50;61.50;;;;;;10047581;28;20033;-59
2022/06/02 04:48:18;;;;;;;1.95;1.45;;;16.60;60.80;;;;;;10056490;28;20076;-58
2022/06/02 04:53:34;;;;;;;1.92;1.25;;;16.70;60.70;;;;;;10056717;28;20048;-57
2022/06/02 04:58:47;;;;;;;3.38;1.60;;;16.80;60.70;;;;;;10056397;28;20411;-59
2022/06/02 05:04:06;;;;;;;4.68;1.40;;;16.90;60.80;;;;;;10055819;28;20034;-58
2022/06/02 05:09:22;;;;;;;2.55;1.40;;;16.90;61.30;;;;;;10026032;28;20091;-58
2022/06/02 05:14:30;;;;;;;2.43;1.67;;;17.00;61.20;;;;;;10033372;28;20033;-57
2022/06/02 05:19:34;;;;;;;1.92;1.40;;;17.00;61.10;;;;;;10055334;28;20124;-53
2022/06/02 05:24:47;;;;;;;1.70;1.40;;;17.20;60.70;;;;;;10055179;28;20034;-56
2022/06/02 05:30:35;;;;;;;1.20;1.10;;;17.50;60.50;;;;;;10054826;28;20029;-59
2022/06/02 05:35:56;;;;;;;2.05;1.30;;;17.40;60.50;;;;;;9911643;28;20031;-58
2022/06/02 05:41:05;;;;;;;2.30;1.30;;;17.50;60.90;;;;;;10020677;28;20060;-61
2022/06/02 05:46:18;;;;;;;2.33;1.50;;;17.40;61.10;;;;;;10053784;28;20021;-60
2022/06/02 05:51:29;;;;;;;4.40;1.55;;;17.10;61.80;;;;;;10036475;28;20041;-59
2022/06/02 05:56:39;;;;;;;2.00;1.80;;;17.20;61.80;;;;;;10028160;28;20131;-58
2022/06/02 06:01:48;;;;;;;3.25;1.30;;;17.30;61.10;;;;;;10054325;28;20124;-58
2022/06/02 06:06:51;;;;;;;3.17;1.75;;;17.40;61.60;;;;;;10053726;28;20057;-61
2022/06/02 06:12:12;;;;;;;3.58;1.73;;;17.30;60.90;;;;;;10053636;28;20105;-57
2022/06/02 06:17:30;;;;;;;3.00;1.38;;;17.20;61.50;;;;;;10029963;28;20076;-59
2022/06/02 06:22:35;;;;;;;5.53;1.83;;;17.10;62.30;;;;;;10046516;28;20037;-58
2022/06/02 06:27:26;;;;;;;;;;;17.20;61.90;;;;;;10053534;28;20037;-60
2022/06/02 06:32:38;;;;;;;3.55;1.38;;;17.30;62.80;;;;;;10054007;28;19919;-59
2022/06/02 06:38:04;;;;;;;2.45;1.50;;;17.40;61.60;;;;;;10046463;28;20025;-58
2022/06/02 06:43:12;;;;;;;3.80;1.30;;;17.50;62.20;;;;;;10051199;28;20049;-59
2022/06/02 06:48:15;;;;;;;4.60;2.80;;;17.60;61.70;;;;;;10047667;28;20447;-61
2022/06/02 06:53:32;;;;;;;2.50;1.67;;;17.90;61.10;;;;;;10033842;28;20057;-59
2022/06/02 06:58:44;;;;;;;4.63;2.75;;;18.00;60.90;;;;;;10051040;28;20391;-60
2022/06/02 07:03:53;;;;;;;5.50;2.30;;;18.10;61.00;;;;;;10050068;28;20045;-59
2022/06/02 07:08:47;;;;;;;3.25;1.77;;;18.30;60.70;;;;;;10050291;28;20121;-59
2022/06/02 07:13:53;;;;;;;4.65;1.65;;;18.50;60.30;;;;;;10050390;28;20017;-60
2022/06/02 07:18:44;;;;;;;2.08;1.40;;;18.80;59.90;;;;;;10048633;28;20057;-60
2022/06/02 07:24:12;;;;;;;2.65;1.48;;;18.60;60.20;;;;;;10050064;28;20065;-59
2022/06/02 07:29:36;;;;;;;4.80;2.10;;;18.70;60.30;;;;;;10038599;28;20072;-59
2022/06/02 07:35:01;;;;;;;4.15;1.50;;;18.70;60.20;;;;;;10046489;28;20187;-60
2022/06/02 07:40:21;;;;;;;7.57;2.77;;;18.80;60.00;;;;;;10041156;28;20056;-60
2022/06/02 07:45:17;;;;;;;5.00;1.80;;;19.10;59.80;;;;;;10050417;28;20488;-59
2022/06/02 07:50:27;;;;;;;3.08;1.23;;;19.20;59.60;;;;;;10050225;28;20056;-60
2022/06/02 07:55:39;;;;;;;2.70;1.48;;;19.10;59.70;;;;;;10050878;28;20021;-59
2022/06/02 08:00:42;;;;;;;2.50;1.55;;;19.30;59.30;;;;;;10055624;28;20407;-59
2022/06/02 08:05:45;;;;;;;4.88;1.27;;;19.40;59.20;;;;;;10053343;28;20489;-59
2022/06/02 08:10:52;;;;;;;2.30;1.40;;;19.30;59.20;;;;;;10058432;28;20025;-59
2022/06/02 08:15:57;;;;;;;1.45;1.30;;;19.40;59.00;;;;;;10058561;28;20083;-59
2022/06/02 08:21:17;;;;;;;1.60;1.00;;;19.70;58.40;;;;;;10057327;28;20041;-61
2022/06/02 08:26:19;;;;;;;9.07;1.20;;;19.90;58.00;;;;;;10054942;28;20143;-61
2022/06/02 08:31:47;;;;;;;2.80;1.67;;;19.90;58.00;;;;;;10057806;28;20029;-60
2022/06/02 08:37:05;;;;;;;1.40;1.08;;;20.00;57.40;;;;;;10051789;28;20380;-62
2022/06/02 08:42:21;;;;;;;3.90;1.27;;;20.30;57.00;;;;;;10057475;28;20072;-61
2022/06/02 08:47:33;;;;;;;1.58;0.90;;;20.60;56.50;;;;;;10056988;28;20495;-60
2022/06/02 08:52:43;;;;;;;2.35;1.38;;;20.90;55.80;;;;;;10055556;28;20052;-60
2022/06/02 08:58:04;;;;;;;3.80;1.00;;;20.70;56.40;;;;;;10053571;28;20022;-59
2022/06/02 09:03:19;;;;;;;0.95;0.88;;;20.70;56.00;;;;;;10050117;28;20112;-59
2022/06/02 09:08:17;;;;;;;1.42;1.15;;;20.70;56.10;;;;;;10051777;28;20025;-58
2022/06/02 09:13:45;;;;;;;4.40;1.50;;;20.70;55.80;;;;;;10050744;28;20176;-60
2022/06/02 09:19:13;;;;;;;3.47;1.00;;;20.70;55.70;;;;;;10044795;28;20326;-60
2022/06/02 09:24:33;;;;;;;2.20;1.40;;;20.60;55.40;;;;;;10047939;28;20175;-60
2022/06/02 09:29:25;;;;;;;3.38;0.82;;;20.90;54.90;;;;;;10037063;28;20385;-59
2022/06/02 09:34:53;;;;;;;2.97;1.17;;;21.10;54.80;;;;;;10054482;28;20027;-59
2022/06/02 09:40:00;;;;;;;3.38;1.10;;;21.30;53.70;;;;;;10046213;28;20025;-59
2022/06/02 09:45:19;;;;;;;1.90;0.93;;;21.50;53.60;;;;;;10047202;28;20041;-60
2022/06/02 09:50:19;;;;;;;2.30;1.23;;;21.80;53.60;;;;;;10048522;28;20132;-60
2022/06/02 09:55:20;;;;;;;2.33;1.17;;;21.90;53.30;;;;;;10052979;28;20036;-60
2022/06/02 10:00:40;;;;;;;1.80;1.20;;;22.10;53.30;;;;;;10051718;28;20028;-58
2022/06/02 10:06:08;;;;;;;2.00;1.42;;;22.50;52.80;;;;;;9996914;28;20033;-59
2022/06/02 10:11:10;;;;;;;3.13;2.17;;;22.70;52.30;;;;;;10051283;28;20026;-60
2022/06/02 10:16:37;;;;;;;2.17;1.25;;;22.70;52.20;;;;;;10053712;28;20569;-58
2022/06/02 10:21:46;;;;;;;1.98;1.33;;;22.70;51.60;;;;;;10053539;28;20036;-59
2022/06/02 10:27:01;;;;;;;4.20;1.30;;;22.60;51.00;;;;;;10053874;28;20017;-60
2022/06/02 10:32:22;;;;;;;1.38;1.10;;;22.40;51.90;;;;;;10047044;28;20473;-61
2022/06/02 10:37:13;;;;;;;2.50;0.82;;;22.50;51.50;;;;;;10052190;28;20076;-60
2022/06/02 10:42:12;;;;;;;3.72;1.15;;;22.60;51.50;;;;;;10054073;28;20064;-58
2022/06/02 10:47:23;;;;;;;3.25;1.60;;;22.70;51.50;;;;;;10047925;28;20052;-60
2022/06/02 10:52:54;;;;;;;1.33;0.95;;;22.90;51.10;;;;;;10051188;28;20055;-58
2022/06/02 10:57:55;;;;;;;2.00;1.25;;;23.20;50.60;;;;;;10053478;28;20105;-57
2022/06/02 11:03:36;;;;;;;2.05;1.23;;;23.20;50.30;;;;;;10053875;28;20037;-58
2022/06/02 11:09:04;;;;;;;3.63;1.63;;;23.50;49.90;;;;;;10006389;28;20222;-59
2022/06/02 11:14:21;;;;;;;1.52;1.10;;;23.70;49.60;;;;;;10051837;28;20384;-61
2022/06/02 11:19:34;;;;;;;2.00;1.17;;;24.00;48.80;;;;;;10053440;28;20044;-58
2022/06/02 11:24:47;;;;;;;0.98;0.90;;;24.10;49.70;;;;;;10048968;28;20041;-58
2022/06/02 11:29:49;;;;;;;1.73;1.10;;;24.10;49.30;;;;;;10052307;28;20029;-59
2022/06/02 11:34:55;;;;;;;1.27;1.17;;;24.30;49.00;;;;;;10056271;28;20040;-60
2022/06/02 11:39:51;;;;;;;2.92;1.70;;;24.70;48.90;;;;;;10058756;28;20115;-57
2022/06/02 11:45:11;;;;;;;1.60;1.00;;;25.00;48.70;;;;;;10058054;28;20512;-58
2022/06/02 11:50:36;;;;;;;2.38;1.13;;;25.10;48.00;;;;;;10058651;28;20450;-59
2022/06/02 11:55:33;;;;;;;2.42;1.75;;;25.00;47.90;;;;;;10055782;28;20507;-59
2022/06/02 12:00:36;;;;;;;2.17;1.50;;;25.30;47.70;;;;;;10059186;28;20029;-58
2022/06/02 12:06:08;;;;;;;4.75;1.10;;;25.10;47.80;;;;;;10057491;28;20487;-60
2022/06/02 12:11:02;;;;;;;2.38;2.08;;;25.50;47.10;;;;;;10019994;28;20061;-60
2022/06/02 12:16:14;;;;;;;3.08;1.70;;;25.60;47.40;;;;;;10057159;28;20036;-59
2022/06/02 12:21:39;;;;;;;1.70;1.30;;;25.70;46.30;;;;;;10040064;28;20152;-58
2022/06/02 12:27:07;;;;;;;3.88;1.45;;;26.00;46.00;;;;;;10057006;28;20369;-59
2022/06/02 12:32:04;;;;;;;2.15;1.30;;;26.00;44.90;;;;;;10055990;28;20492;-60
2022/06/02 12:37:21;;;;;;;2.47;1.40;;;25.90;46.30;;;;;;10057654;28;20032;-60
2022/06/02 12:42:40;;;;;;;1.42;1.15;;;25.50;46.00;;;;;;10057392;28;20045;-59
2022/06/02 12:48:05;;;;;;;5.55;1.25;;;25.00;45.80;;;;;;10055181;28;20028;-59
2022/06/02 12:52:55;;;;;;;;;;;25.30;45.70;;;;;;10046869;28;20471;-58
2022/06/02 12:58:34;;;;;;;1.73;1.08;;;25.50;45.00;;;;;;10045822;28;19924;-59
2022/06/02 13:03:55;;;;;;;4.25;1.30;;;26.40;44.80;;;;;;10052204;28;20423;-58
2022/06/02 13:08:55;;;;;;;1.38;0.85;;;28.00;42.80;;;;;;10055578;28;20028;-57
2022/06/02 13:14:18;;;;;;;2.35;0.90;;;28.70;43.10;;;;;;10055289;28;20031;-56
2022/06/02 13:19:26;;;;;;;4.43;1.20;;;27.70;43.50;;;;;;10055358;28;20036;-58
2022/06/02 13:24:37;;;;;;;1.60;0.90;;;26.80;44.50;;;;;;10055110;28;20044;-58
2022/06/02 13:29:36;;;;;;;2.33;1.00;;;26.50;44.10;;;;;;10054299;28;20025;-56
2022/06/02 13:34:46;;;;;;;1.60;1.13;;;25.90;44.80;;;;;;10054871;28;20178;-57
2022/06/02 13:39:58;;;;;;;2.28;1.05;;;25.40;44.90;;;;;;10050791;28;20530;-58
2022/06/02 13:45:16;;;;;;;3.70;0.98;;;24.90;45.30;;;;;;10053880;28;20032;-58
2022/06/02 13:50:29;;;;;;;7.47;2.78;;;24.70;45.50;;;;;;10054245;28;20064;-58
2022/06/02 14:01:07;;;;;;;1.58;0.98;;;25.60;44.80;;;;;;10054535;28;20040;-58
2022/06/02 14:06:06;;;;;;;3.40;1.30;;;26.50;44.70;;;;;;10051302;28;20022;-58
2022/06/02 14:11:12;;;;;;;3.45;1.58;;;28.60;42.90;;;;;;10054253;28;20053;-59
2022/06/02 14:16:13;;;;;;;1.45;0.93;;;27.70;43.20;;;;;;10053024;28;20503;-60
2022/06/02 14:21:31;;;;;;;1.45;1.08;;;27.10;43.80;;;;;;10051993;28;20026;-59
2022/06/02 14:26:43;;;;;;;1.85;1.40;;;26.80;44.00;;;;;;10051026;28;20254;-58
2022/06/02 14:31:38;;;;;;;2.67;1.10;;;26.80;43.90;;;;;;10050534;28;20025;-59
2022/06/02 14:36:38;;;;;;;2.65;1.10;;;26.90;43.90;;;;;;10051913;28;20472;-61
2022/06/02 14:41:55;;;;;;;3.88;0.95;;;26.80;44.00;;;;;;10040715;28;20045;-59
2022/06/02 14:47:16;;;;;;;3.05;1.10;;;26.70;44.00;;;;;;10041822;28;20025;-59
2022/06/02 14:52:41;;;;;;;2.90;1.20;;;27.00;43.70;;;;;;10062479;23;20359;-67
2022/06/02 14:58:05;;;;;;;3.17;1.40;;;27.50;43.20;;;;;;10053545;28;20044;-67
2022/06/02 15:03:22;;;;;;;2.70;1.50;;;28.00;42.90;;;;;;10039445;28;20065;-67
2022/06/02 15:08:41;;;;;;;4.20;1.40;;;30.60;41.80;;;;;;10050408;28;20112;-65
2022/06/02 15:13:51;;;;;;;3.10;1.70;;;32.00;40.30;;;;;;10049301;28;20144;-67
2022/06/02 15:19:12;;;;;;;4.57;1.27;;;29.80;41.70;;;;;;10050754;28;20021;-67
2022/06/02 15:24:27;;;;;;;2.70;1.35;;;28.50;42.40;;;;;;10051540;28;20423;-65
2022/06/02 15:29:49;;;;;;;1.33;1.08;;;28.20;42.60;;;;;;10047171;28;20152;-67
2022/06/02 15:35:00;;;;;;;2.95;1.52;;;28.70;41.30;;;;;;10050501;28;20484;-68
2022/06/02 15:40:26;;;;;;;2.63;1.20;;;30.60;40.70;;;;;;10051340;28;20046;-67
2022/06/02 15:45:35;;;;;;;2.90;1.50;;;31.60;38.80;;;;;;10037748;28;20025;-67
2022/06/02 15:50:56;;;;;;;1.58;1.02;;;31.40;39.70;;;;;;10046330;28;20072;-68
2022/06/02 15:56:05;;;;;;;1.70;1.23;;;29.30;40.80;;;;;;10045412;28;20034;-67
2022/06/02 16:01:14;;;;;;;3.65;1.10;;;29.10;41.60;;;;;;10028396;28;20036;-68
2022/06/02 16:06:08;;;;;;;1.88;1.50;;;31.70;39.80;;;;;;10051021;28;20453;-68
2022/06/02 16:11:20;;;;;;;2.28;1.40;;;32.60;39.20;;;;;;10051147;28;20028;-66
2022/06/02 16:16:29;;;;;;;;;;;33.20;38.90;;;;;;10050252;28;20412;-68
2022/06/02 16:21:47;;;;;;;0.88;0.88;;;33.90;37.50;;;;;;10052336;28;20303;-67
2022/06/02 16:27:19;;;;;;;2.92;0.90;;;33.30;37.30;;;;;;10056883;28;20044;-68
2022/06/02 16:32:31;;;;;;;2.63;1.13;;;31.90;38.90;;;;;;10048071;28;20050;-64
2022/06/02 16:37:42;;;;;;;;;;;34.10;37.30;;;;;;10038768;28;20029;-70
2022/06/02 16:42:55;;;;;;;1.80;1.33;;;36.60;36.30;;;;;;10031918;28;19921;-68
2022/06/02 16:48:33;;;;;;;2.70;1.50;;;37.70;34.60;;;;;;10033995;28;20093;-69
2022/06/02 16:53:54;;;;;;;1.50;1.20;;;38.80;34.30;;;;;;9988634;28;20053;-64
2022/06/02 16:59:18;;;;;;;2.08;1.35;;;38.10;34.50;;;;;;10034969;28;20018;-63
2022/06/02 17:04:29;;;;;;;1.30;1.17;;;38.30;34.20;;;;;;10030296;28;20038;-67
2022/06/02 17:09:32;;;;;;;3.85;2.45;;;38.10;33.70;;;;;;10037311;28;20028;-67
2022/06/02 17:14:49;;;;;;;2.00;1.20;;;37.80;33.90;;;;;;10048643;28;20040;-68
2022/06/02 17:19:51;;;;;;;2.10;1.52;;;37.00;34.20;;;;;;10053878;28;20086;-68
2022/06/02 17:25:00;;;;;;;1.75;1.50;;;37.80;33.80;;;;;;10054974;28;20069;-69
2022/06/02 17:30:00;;;;;;;2.05;1.10;;;37.90;33.50;;;;;;10053666;28;20657;-68
2022/06/02 17:35:15;;;;;;;2.47;2.00;;;37.30;34.80;;;;;;10054762;28;20192;-68
2022/06/02 17:40:23;;;;;;;2.90;1.33;;;36.80;34.60;;;;;;10036323;28;20489;-65
2022/06/02 17:45:17;;;;;;;2.92;1.02;;;36.50;34.30;;;;;;10050904;28;20034;-65
2022/06/02 17:50:46;;;;;;;2.63;1.42;;;35.30;34.90;;;;;;10037752;28;20057;-65
2022/06/02 17:56:06;;;;;;;2.53;1.60;;;34.20;35.20;;;;;;10051742;28;20029;-64
2022/06/02 18:01:12;;;;;;;2.47;1.48;;;31.80;36.70;;;;;;10049423;28;20156;-64
2022/06/02 18:06:47;;;;;;;1.50;1.30;;;29.60;38.60;;;;;;10046740;28;20103;-64
2022/06/02 18:12:04;;;;;;;4.32;1.88;;;28.20;39.80;;;;;;10047186;28;20026;-63
2022/06/02 18:17:23;;;;;;;1.73;1.00;;;27.70;39.60;;;;;;10053065;28;20467;-63
2022/06/02 18:22:16;;;;;;;2.58;1.17;;;27.30;40.40;;;;;;10048236;28;20037;-62
2022/06/02 18:27:10;;;;;;;3.20;1.50;;;27.10;40.00;;;;;;10051032;28;20210;-62
2022/06/02 18:32:24;;;;;;;1.40;1.17;;;26.60;41.80;;;;;;10051557;28;20029;-62
2022/06/02 18:37:43;;;;;;;1.42;1.05;;;26.10;42.30;;;;;;10049061;28;20064;-64
2022/06/02 18:42:59;;;;;;;2.60;1.15;;;26.00;42.70;;;;;;10037963;28;20124;-63
2022/06/02 18:48:32;;;;;;;3.97;1.73;;;25.80;42.70;;;;;;10038057;28;20373;-62
2022/06/02 18:53:45;;;;;;;2.42;1.80;;;25.70;42.80;;;;;;10032628;28;20061;-65
2022/06/02 18:58:45;;;;;;;3.42;1.40;;;25.60;43.30;;;;;;10045566;28;20561;-61
2022/06/02 19:04:13;;;;;;;2.50;1.58;;;25.50;43.10;;;;;;10026737;28;20029;-62
2022/06/02 19:15:24;;;;;;;2.15;1.38;;;25.10;44.30;;;;;;10042164;28;20041;-62
2022/06/02 19:20:18;;;;;;;4.72;1.48;;;24.90;44.90;;;;;;10052649;28;20419;-62
2022/06/02 19:25:15;;;;;;;2.17;1.20;;;24.90;44.20;;;;;;10041575;28;20495;-65
2022/06/02 19:30:34;;;;;;;2.03;1.30;;;24.70;44.70;;;;;;10053694;28;20167;-66
2022/06/02 19:35:43;;;;;;;3.20;1.50;;;24.70;45.20;;;;;;10035049;28;20080;-64
2022/06/02 19:41:04;;;;;;;2.72;1.73;;;24.70;45.40;;;;;;10025819;28;20037;-66
2022/06/02 19:46:40;;;;;;;2.83;1.55;;;24.60;45.60;;;;;;10029927;28;20351;-64
2022/06/02 19:51:36;;;;;;;2.60;1.20;;;24.50;45.60;;;;;;10034839;28;20516;-65
2022/06/02 19:56:30;;;;;;;3.67;1.77;;;24.40;45.70;;;;;;10047360;28;20137;-65
2022/06/02 20:01:40;;;;;;;4.43;1.73;;;24.30;45.90;;;;;;10056653;28;20034;-67
2022/06/02 20:06:37;;;;;;;2.50;1.52;;;24.20;46.10;;;;;;10041139;28;20017;-64
2022/06/02 20:11:40;;;;;;;3.53;1.50;;;24.20;46.40;;;;;;10039354;28;20042;-64
2022/06/02 20:16:39;;;;;;;1.92;1.60;;;24.00;46.90;;;;;;10032324;28;20064;-67
2022/06/02 20:21:55;;;;;;;3.03;1.85;;;24.00;46.90;;;;;;10059727;28;20678;-66
2022/06/02 20:26:58;;;;;;;3.17;1.83;;;24.10;46.90;;;;;;10058134;28;20025;-66
2022/06/02 20:32:01;;;;;;;5.95;2.22;;;24.00;47.10;;;;;;10058420;28;20403;-67
2022/06/02 20:37:13;;;;;;;2.17;1.42;;;24.00;47.20;;;;;;10053976;28;20491;-63
2022/06/02 20:42:30;;;;;;;3.38;1.40;;;23.90;48.10;;;;;;10040083;28;20172;-65
2022/06/02 20:47:58;;;;;;;1.98;1.48;;;23.70;47.70;;;;;;10051443;28;20447;-65
2022/06/02 20:53:00;;;;;;;3.78;2.80;;;23.80;48.10;;;;;;10050177;28;20041;-64
2022/06/02 20:58:12;;;;;;;2.83;1.42;;;23.80;47.90;;;;;;10038522;28;20099;-64
2022/06/02 21:03:21;;;;;;;1.80;1.70;;;23.50;49.10;;;;;;10056415;28;20068;-63
2022/06/02 21:08:18;;;;;;;2.08;1.63;;;23.30;49.40;;;;;;10041660;28;20025;-67
2022/06/02 21:13:36;;;;;;;2.22;1.50;;;23.10;49.50;;;;;;10049528;28;20032;-66
2022/06/02 21:18:32;;;;;;;3.72;1.60;;;23.10;50.80;;;;;;10046731;28;20134;-63
2022/06/02 21:23:29;;;;;;;4.10;1.50;;;23.00;50.10;;;;;;10055334;28;20045;-65
2022/06/02 21:28:23;;;;;;;2.15;1.52;;;23.00;50.50;;;;;;10056075;28;20036;-64
2022/06/02 21:33:33;;;;;;;1.53;1.33;;;22.80;50.90;;;;;;10054495;28;20076;-63
2022/06/02 21:38:32;;;;;;;3.45;1.38;;;22.70;51.30;;;;;;10054270;28;20651;-63
2022/06/02 21:43:31;;;;;;;3.03;1.20;;;22.60;51.60;;;;;;10054818;28;20113;-63
2022/06/02 21:49:01;;;;;;;2.75;1.20;;;22.60;51.80;;;;;;10048739;28;20469;-65
2022/06/02 21:53:52;;;;;;;2.47;1.38;;;22.60;52.50;;;;;;10049033;28;20053;-63
2022/06/02 21:59:11;;;;;;;3.33;1.58;;;22.50;51.90;;;;;;10054745;28;20041;-63
2022/06/02 22:04:16;;;;;;;2.55;1.90;;;22.50;52.60;;;;;;10049283;28;20032;-63
2022/06/02 22:09:40;;;;;;;1.80;1.30;;;22.40;52.60;;;;;;10053304;28;20079;-63
2022/06/02 22:14:34;;;;;;;2.05;1.30;;;22.40;53.30;;;;;;10052999;28;20021;-64
2022/06/02 22:19:54;;;;;;;4.40;1.30;;;22.20;53.10;;;;;;10052376;28;20503;-64
2022/06/02 22:24:54;;;;;;;4.40;1.30;;;22.00;53.80;;;;;;10047469;28;20089;-63
2022/06/02 22:30:09;;;;;;;1.38;1.20;;;22.00;53.90;;;;;;10052776;28;20010;-64
2022/06/02 22:35:12;;;;;;;1.95;1.50;;;22.00;53.90;;;;;;10052231;28;20029;-64
2022/06/02 22:40:12;;;;;;;2.67;1.27;;;21.90;53.80;;;;;;10052124;28;20030;-63
2022/06/02 22:45:33;;;;;;;1.75;1.33;;;21.80;54.40;;;;;;10046306;28;20038;-64
2022/06/02 22:50:54;;;;;;;1.33;1.20;;;21.70;54.90;;;;;;10046897;28;20059;-63
2022/06/02 22:56:00;;;;;;;2.53;1.52;;;21.60;55.00;;;;;;10051255;28;20104;-63
2022/06/02 23:01:23;;;;;;;1.70;1.35;;;21.70;54.70;;;;;;10049613;28;20038;-63
2022/06/02 23:06:19;;;;;;;1.35;1.10;;;21.60;55.10;;;;;;10050862;28;20252;-63
2022/06/02 23:11:25;;;;;;;1.27;1.15;;;21.60;54.70;;;;;;10051164;28;20411;-63
2022/06/02 23:16:42;;;;;;;2.92;1.35;;;21.50;55.60;;;;;;10049494;28;20108;-63
2022/06/02 23:21:51;;;;;;;2.20;1.40;;;21.40;55.40;;;;;;10045722;28;20446;-63
2022/06/02 23:27:01;;;;;;;1.85;1.60;;;21.30;55.50;;;;;;10050424;28;20079;-64
2022/06/02 23:32:04;;;;;;;1.25;1.13;;;21.20;56.20;;;;;;10057820;28;20086;-64
2022/06/02 23:37:16;;;;;;;2.25;1.35;;;21.10;56.00;;;;;;10058748;28;20071;-63
2022/06/02 23:47:25;;;;;;;5.32;1.45;;;20.90;56.60;;;;;;10050449;28;20546;-63
2022/06/02 23:52:40;;;;;;;5.32;1.90;;;20.80;57.00;;;;;;10058057;28;20084;-63
2022/06/02 23:57:39;;;;;;;1.77;1.25;;;20.80;57.70;;;;;;10058334;28;20025;-63
